< < Back
Terminal Aerodrome Forecast


Current Version              Previous Versions:   1  2  3  4  5  6  7  8  9  

Terminal Aerodrome Forecast

253
FTUS44 KHUN 251720
TAFHSV
TAF
KHSV 251720Z 2518/2618 23007KT P6SM SCT050
     FM260100 VRB03KT P6SM SCT060
     FM261600 18006KT P6SM SCT050=

Latest METAR

996
SAUS80 KWBC 262100 RRA
MTRHSV
METAR KHSV 262053Z 16010KT 10SM SCT050 36/19 A2995 RMK AO2 SLP132
T03560194 58025


USA.gov is the U.S. government's official web portal to all federal, state and local government web resources and services.